createdAt,value
2022-10-09T00:01:04.715Z,15.38
2022-10-09T00:04:06.946Z,14.40
2022-10-09T00:07:09.115Z,20.48
2022-10-09T00:10:11.303Z,14.98
2022-10-09T00:13:13.599Z,22.55
2022-10-09T00:16:17.107Z,20.02
2022-10-09T00:19:19.353Z,16.33
2022-10-09T00:22:21.526Z,20.25
2022-10-09T00:25:23.694Z,18.92
2022-10-09T00:28:27.715Z,17.42
2022-10-09T00:31:30.101Z,13.52
2022-10-09T00:34:32.422Z,13.57
2022-10-09T00:37:34.649Z,14.00
2022-10-09T00:40:37.594Z,12.57
2022-10-09T00:43:47.874Z,18.20
2022-10-09T00:46:51.078Z,18.12
2022-10-09T00:49:56.066Z,13.77
2022-10-09T00:53:00.357Z,15.07
2022-10-09T00:56:02.614Z,13.88
2022-10-09T00:59:05.501Z,15.68
2022-10-09T01:02:07.952Z,15.52
2022-10-09T01:05:10.888Z,12.07
2022-10-09T01:08:38.460Z,15.40
2022-10-09T01:11:57.502Z,16.08
2022-10-09T01:15:02.801Z,13.20
2022-10-09T01:18:13.009Z,11.98
2022-10-09T01:21:41.879Z,10.98
2022-10-09T01:25:09.434Z,12.18
2022-10-09T01:28:13.047Z,10.80
2022-10-09T01:31:17.316Z,13.57
2022-10-09T01:34:20.498Z,12.70
2022-10-09T01:37:23.578Z,19.67
2022-10-09T01:40:26.981Z,10.82
2022-10-09T01:43:29.108Z,10.10
2022-10-09T01:46:32.816Z,12.68
2022-10-09T01:49:54.131Z,10.88
2022-10-09T01:53:01.615Z,12.93
2022-10-09T01:56:14.991Z,11.55
2022-10-09T01:59:18.955Z,13.40
2022-10-09T02:02:21.723Z,12.30
2022-10-09T02:05:26.957Z,13.10
2022-10-09T02:08:30.783Z,12.98
2022-10-09T02:11:33.476Z,10.50
2022-10-09T02:14:36.699Z,12.18
2022-10-09T02:17:44.428Z,11.85
2022-10-09T02:20:50.404Z,11.30
2022-10-09T02:23:53.702Z,12.25
2022-10-09T02:26:57.496Z,12.13
2022-10-09T02:30:00.438Z,15.45
2022-10-09T02:33:04.671Z,13.20
2022-10-09T02:36:06.943Z,11.68
2022-10-09T02:39:09.623Z,10.00
2022-10-09T02:42:11.993Z,11.45
2022-10-09T02:45:14.321Z,15.75
2022-10-09T02:48:16.530Z,12.65
2022-10-09T02:51:18.849Z,12.20
2022-10-09T02:54:21.004Z,11.98
2022-10-09T02:57:23.215Z,10.35
2022-10-09T03:00:25.372Z,10.40
2022-10-09T03:03:27.528Z,12.37
2022-10-09T03:06:29.687Z,13.60
2022-10-09T03:09:33.883Z,15.23
2022-10-09T03:12:36.170Z,15.02
2022-10-09T03:15:38.472Z,13.18
2022-10-09T03:18:40.877Z,13.00
2022-10-09T03:21:43.077Z,13.38
2022-10-09T03:24:45.254Z,13.20
2022-10-09T03:27:47.385Z,13.10
2022-10-09T03:30:49.560Z,11.77
2022-10-09T03:33:51.773Z,19.58
2022-10-09T03:36:53.907Z,22.08
2022-10-09T03:39:56.160Z,24.20
2022-10-09T03:42:58.423Z,25.10
2022-10-09T03:46:04.529Z,17.20
2022-10-09T03:49:06.847Z,18.95
2022-10-09T03:52:09.057Z,20.15
2022-10-09T03:55:11.254Z,18.70
2022-10-09T03:58:13.433Z,16.30
2022-10-09T04:01:15.732Z,16.40
2022-10-09T04:04:18.167Z,19.27
2022-10-09T04:07:20.400Z,18.35
2022-10-09T04:10:22.987Z,15.05
2022-10-09T04:13:25.293Z,18.00
2022-10-09T04:16:27.505Z,19.95
2022-10-09T04:19:29.697Z,18.77
2022-10-09T04:22:31.874Z,19.42
2022-10-09T04:25:34.236Z,19.00
2022-10-09T04:28:36.477Z,20.23
2022-10-09T04:31:38.705Z,20.75
2022-10-09T04:34:41.086Z,23.48
2022-10-09T04:37:43.234Z,19.90
2022-10-09T04:40:46.054Z,20.77
2022-10-09T04:43:48.246Z,20.80
2022-10-09T04:46:51.611Z,20.65
2022-10-09T04:49:53.861Z,17.02
2022-10-09T04:52:55.998Z,18.48
2022-10-09T04:55:58.248Z,20.40
2022-10-09T04:59:00.448Z,19.45
2022-10-09T05:02:02.667Z,19.23
2022-10-09T05:05:05.211Z,16.77
2022-10-09T05:08:07.448Z,22.92
2022-10-09T05:11:12.132Z,22.37
2022-10-09T05:14:14.515Z,20.90
2022-10-09T05:17:20.657Z,45.03
2022-10-09T05:20:25.073Z,16.75
2022-10-09T05:23:27.526Z,23.27
2022-10-09T05:26:29.837Z,26.73
2022-10-09T05:29:33.012Z,48.50
2022-10-09T05:32:35.178Z,40.50
2022-10-09T05:35:37.316Z,21.92
2022-10-09T05:38:40.303Z,15.70
2022-10-09T05:41:42.453Z,17.90
2022-10-09T05:44:44.612Z,25.95
2022-10-09T05:47:46.814Z,19.42
2022-10-09T05:50:49.052Z,21.02
2022-10-09T05:53:51.821Z,20.35
2022-10-09T05:56:53.947Z,26.95
2022-10-09T05:59:56.109Z,22.60
2022-10-09T06:02:58.330Z,17.40
2022-10-09T06:06:01.913Z,21.58
2022-10-09T06:09:04.616Z,16.67
2022-10-09T06:12:06.887Z,21.12
2022-10-09T06:15:09.362Z,20.17
2022-10-09T06:18:11.507Z,20.85
2022-10-09T06:21:14.935Z,19.33
2022-10-09T06:24:27.824Z,19.83
2022-10-09T06:27:31.193Z,20.08
2022-10-09T06:30:37.807Z,20.27
2022-10-09T06:33:44.634Z,19.80
2022-10-09T06:36:46.793Z,18.62
2022-10-09T06:39:48.938Z,16.75
2022-10-09T06:42:51.642Z,15.93
2022-10-09T06:45:54.091Z,16.70
2022-10-09T06:48:56.501Z,18.92
2022-10-09T06:51:58.639Z,13.23
2022-10-09T06:55:00.817Z,17.45
2022-10-09T06:58:03.184Z,18.58
2022-10-09T07:01:05.462Z,13.43
2022-10-09T07:04:11.823Z,13.62
2022-10-09T07:07:13.989Z,13.80
2022-10-09T07:10:16.268Z,14.77
2022-10-09T07:13:18.442Z,12.37
2022-10-09T07:16:22.487Z,10.77
2022-10-09T07:19:24.724Z,12.05
2022-10-09T07:22:27.246Z,13.00
2022-10-09T07:25:29.736Z,9.80
2022-10-09T07:28:32.027Z,11.05
2022-10-09T07:31:34.327Z,11.77
2022-10-09T07:34:36.565Z,10.40
2022-10-09T07:37:38.704Z,10.73
2022-10-09T07:40:40.861Z,12.23
2022-10-09T07:43:43.170Z,11.23
2022-10-09T07:46:45.512Z,11.93
2022-10-09T07:49:47.813Z,12.23
2022-10-09T07:52:50.295Z,11.52
2022-10-09T07:55:52.667Z,11.27
2022-10-09T07:58:56.923Z,11.43
2022-10-09T08:01:59.156Z,11.07
2022-10-09T08:05:01.341Z,8.45
2022-10-09T08:08:03.567Z,7.95
2022-10-09T08:11:13.224Z,10.98
2022-10-09T08:14:19.226Z,8.85
2022-10-09T08:17:21.830Z,9.27
2022-10-09T08:20:24.143Z,7.70
2022-10-09T08:23:26.871Z,6.95
2022-10-09T08:26:30.155Z,8.52
2022-10-09T08:29:36.634Z,11.15
2022-10-09T08:32:41.607Z,10.80
2022-10-09T08:35:43.981Z,9.27
2022-10-09T08:38:47.881Z,12.32
2022-10-09T08:41:53.443Z,8.73
2022-10-09T08:44:55.627Z,8.38
2022-10-09T08:48:01.073Z,7.90
2022-10-09T08:51:03.940Z,8.93
2022-10-09T08:54:35.999Z,8.20
2022-10-09T08:57:39.541Z,8.90
2022-10-09T09:00:45.890Z,7.18
2022-10-09T09:03:50.728Z,6.20
2022-10-09T09:06:58.649Z,13.75
2022-10-09T09:10:14.997Z,9.27
2022-10-09T09:13:29.516Z,7.10
2022-10-09T09:16:48.042Z,8.10
2022-10-09T09:19:57.413Z,9.38
2022-10-09T09:23:01.260Z,7.47
2022-10-09T09:26:04.390Z,7.15
2022-10-09T09:29:06.762Z,9.48
2022-10-09T09:32:16.579Z,9.48
2022-10-09T09:35:51.188Z,16.75
2022-10-09T09:39:40.793Z,13.02
2022-10-09T09:42:18.275Z,8.82
2022-10-09T09:45:23.399Z,12.10
2022-10-09T09:48:28.551Z,14.32
2022-10-09T09:51:32.336Z,9.27
2022-10-09T09:54:34.531Z,6.65
2022-10-09T09:57:40.541Z,9.38
2022-10-09T10:00:53.692Z,7.43
2022-10-09T10:04:01.180Z,6.05
2022-10-09T10:07:05.921Z,9.75
2022-10-09T10:10:26.633Z,11.15
2022-10-09T10:13:35.944Z,5.87
2022-10-09T10:16:38.875Z,6.65
2022-10-09T10:19:41.373Z,5.15
2022-10-09T10:22:53.859Z,6.15
2022-10-09T10:25:57.276Z,8.00
2022-10-09T10:29:08.082Z,6.78
2022-10-09T10:32:17.528Z,6.07
2022-10-09T10:35:29.952Z,6.20
2022-10-09T10:38:52.406Z,7.82
2022-10-09T10:41:57.581Z,5.22
2022-10-09T10:45:19.530Z,5.00
2022-10-09T10:48:25.588Z,7.18
2022-10-09T10:51:46.307Z,4.45
2022-10-09T10:54:53.824Z,4.97
2022-10-09T10:58:04.911Z,7.78
2022-10-09T11:04:54.662Z,8.18
2022-10-09T11:08:08.263Z,5.28
2022-10-09T11:11:16.449Z,6.90
2022-10-09T11:14:30.709Z,7.15
2022-10-09T11:17:46.220Z,4.80
2022-10-09T11:20:54.102Z,6.40
2022-10-09T11:24:09.108Z,8.82
2022-10-09T11:27:17.822Z,14.65
2022-10-09T11:30:20.203Z,10.30
2022-10-09T11:33:33.320Z,5.68
2022-10-09T11:36:43.935Z,8.60
2022-10-09T11:39:46.571Z,6.20
2022-10-09T11:43:08.899Z,5.20
2022-10-09T11:46:18.140Z,5.37
2022-10-09T11:49:52.872Z,6.40
2022-10-09T11:52:58.691Z,5.95
2022-10-09T11:56:05.026Z,9.65
2022-10-09T11:59:07.682Z,7.37
2022-10-09T12:02:24.491Z,7.65
2022-10-09T12:05:35.759Z,8.73
2022-10-09T12:12:07.497Z,13.52
2022-10-09T12:15:12.547Z,8.98
2022-10-09T12:18:26.397Z,8.27
2022-10-09T12:21:32.867Z,7.57
2022-10-09T12:25:27.473Z,12.27
2022-10-09T12:28:35.867Z,7.07
2022-10-09T12:31:40.477Z,8.90
2022-10-09T12:34:47.234Z,6.57
2022-10-09T12:37:49.498Z,5.80
2022-10-09T12:40:52.189Z,5.70
2022-10-09T12:43:55.750Z,6.78
2022-10-09T12:47:09.332Z,6.62
2022-10-09T12:50:17.072Z,5.32
2022-10-09T12:53:30.117Z,4.72
2022-10-09T12:56:33.531Z,7.22
2022-10-09T12:59:35.745Z,5.18
2022-10-09T13:02:37.951Z,6.03
2022-10-09T13:05:41.732Z,7.65
2022-10-09T13:08:44.358Z,6.57
2022-10-09T13:11:52.926Z,6.03
2022-10-09T13:14:58.650Z,4.85
2022-10-09T13:18:01.417Z,5.55
2022-10-09T13:21:18.994Z,7.60
2022-10-09T13:24:21.309Z,6.25
2022-10-09T13:27:33.216Z,5.20
2022-10-09T13:30:35.421Z,4.97
2022-10-09T13:33:37.714Z,6.30
2022-10-09T13:36:40.094Z,5.60
2022-10-09T13:39:42.375Z,6.78
2022-10-09T13:42:52.625Z,8.63
2022-10-09T13:45:55.056Z,5.17
2022-10-09T13:48:57.320Z,4.75
2022-10-09T13:51:59.472Z,5.70
2022-10-09T13:55:01.665Z,10.25
2022-10-09T13:58:03.939Z,5.53
2022-10-09T14:01:08.318Z,5.50
2022-10-09T14:04:10.524Z,3.87
2022-10-09T14:07:13.026Z,5.43
2022-10-09T14:10:18.236Z,4.87
2022-10-09T14:13:23.250Z,5.25
2022-10-09T14:16:26.652Z,7.22
2022-10-09T14:19:28.843Z,9.68
2022-10-09T14:22:31.290Z,5.22
2022-10-09T14:25:36.657Z,6.07
2022-10-09T14:28:38.931Z,6.70
2022-10-09T14:31:41.224Z,9.35
2022-10-09T14:34:43.425Z,4.62
2022-10-09T14:37:45.623Z,6.05
2022-10-09T14:40:47.802Z,7.87
2022-10-09T14:43:56.764Z,4.20
2022-10-09T14:46:59.162Z,6.80
2022-10-09T14:50:01.456Z,7.90
2022-10-09T14:53:03.695Z,4.95
2022-10-09T14:56:08.101Z,5.12
2022-10-09T14:59:10.287Z,5.03
2022-10-09T15:02:15.151Z,14.73
2022-10-09T15:05:17.412Z,8.20
2022-10-09T15:08:19.611Z,5.15
2022-10-09T15:11:22.083Z,4.82
2022-10-09T15:14:24.217Z,11.05
2022-10-09T15:17:26.451Z,4.25
2022-10-09T15:20:28.735Z,5.70
2022-10-09T15:23:31.501Z,5.90
2022-10-09T15:26:36.428Z,5.20
2022-10-09T15:29:38.567Z,9.20
2022-10-09T15:32:43.139Z,7.82
2022-10-09T15:35:45.542Z,10.43
2022-10-09T15:38:47.857Z,13.62
2022-10-09T15:41:50.282Z,28.05
2022-10-09T15:44:54.142Z,20.88
2022-10-09T15:47:56.293Z,12.15
2022-10-09T15:51:04.069Z,14.77
2022-10-09T15:54:06.444Z,14.77
2022-10-09T15:57:11.311Z,17.70
2022-10-09T16:00:14.189Z,13.02
2022-10-09T16:03:17.333Z,16.30
2022-10-09T16:06:22.604Z,5.62
2022-10-09T16:09:25.188Z,7.22
2022-10-09T16:12:27.521Z,4.07
2022-10-09T16:15:29.719Z,3.72
2022-10-09T16:18:31.990Z,5.90
2022-10-09T16:21:34.354Z,5.93
2022-10-09T16:24:36.505Z,5.35
2022-10-09T16:27:38.689Z,3.90
2022-10-09T16:30:42.848Z,5.45
2022-10-09T16:33:45.142Z,6.07
2022-10-09T16:36:47.306Z,6.18
2022-10-09T16:39:49.522Z,5.18
2022-10-09T16:42:51.973Z,6.22
2022-10-09T16:45:54.384Z,3.92
2022-10-09T16:48:57.285Z,5.47
2022-10-09T16:52:00.615Z,3.37
2022-10-09T16:55:03.001Z,2.95
2022-10-09T16:58:05.215Z,5.10
2022-10-09T17:01:10.177Z,5.50
2022-10-09T17:04:13.174Z,5.90
2022-10-09T17:07:15.516Z,4.07
2022-10-09T17:10:17.690Z,2.87
2022-10-09T17:13:19.934Z,4.72
2022-10-09T17:16:23.126Z,5.22
2022-10-09T17:19:25.552Z,4.57
2022-10-09T17:22:27.728Z,4.12
2022-10-09T17:25:30.395Z,5.72
2022-10-09T17:28:34.584Z,2.95
2022-10-09T17:31:36.885Z,7.50
2022-10-09T17:34:43.093Z,6.97
2022-10-09T17:37:45.312Z,7.30
2022-10-09T17:40:47.605Z,3.70
2022-10-09T17:43:50.907Z,4.07
2022-10-09T17:46:53.043Z,2.87
2022-10-09T17:49:55.358Z,3.80
2022-10-09T17:52:57.527Z,2.35
2022-10-09T17:56:03.728Z,3.67
2022-10-09T17:59:05.987Z,5.32
2022-10-09T18:02:08.178Z,3.30
2022-10-09T18:05:10.342Z,3.65
2022-10-09T18:08:14.219Z,3.33
2022-10-09T18:11:17.076Z,5.45
2022-10-09T18:14:19.298Z,7.20
2022-10-09T18:17:21.797Z,3.75
2022-10-09T18:20:24.004Z,3.33
2022-10-09T18:23:26.215Z,3.35
2022-10-09T18:26:28.599Z,3.95
2022-10-09T18:29:30.817Z,5.62
2022-10-09T18:32:32.986Z,3.03
2022-10-09T18:35:37.554Z,5.62
2022-10-09T18:38:40.268Z,4.00
2022-10-09T18:41:43.097Z,4.78
2022-10-09T18:44:45.355Z,3.22
2022-10-09T18:47:47.691Z,3.45
2022-10-09T18:50:50.320Z,2.30
2022-10-09T18:53:55.511Z,4.20
2022-10-09T18:56:57.967Z,3.30
2022-10-09T19:00:00.948Z,3.05
2022-10-09T19:03:03.211Z,5.00
2022-10-09T19:06:05.743Z,6.72
2022-10-09T19:09:08.045Z,5.87
2022-10-09T19:12:10.293Z,4.30
2022-10-09T19:15:12.587Z,4.53
2022-10-09T19:18:14.764Z,6.85
2022-10-09T19:21:16.933Z,2.80
2022-10-09T19:24:19.153Z,7.22
2022-10-09T19:27:25.752Z,7.30
2022-10-09T19:30:28.705Z,5.05
2022-10-09T19:33:31.126Z,4.12
2022-10-09T19:36:35.062Z,4.00
2022-10-09T19:39:37.264Z,3.28
2022-10-09T19:42:39.441Z,3.15
2022-10-09T19:45:41.789Z,2.87
2022-10-09T19:48:44.881Z,3.87
2022-10-09T19:51:47.187Z,4.15
2022-10-09T19:54:49.414Z,2.85
2022-10-09T19:57:51.862Z,4.35
2022-10-09T20:00:54.279Z,4.65
2022-10-09T20:04:02.243Z,3.92
2022-10-09T20:07:07.850Z,5.12
2022-10-09T20:10:15.715Z,3.03
2022-10-09T20:13:17.867Z,4.70
2022-10-09T20:16:20.025Z,4.07
2022-10-09T20:19:22.289Z,6.25
2022-10-09T20:22:24.491Z,3.92
2022-10-09T20:25:27.649Z,4.93
2022-10-09T20:28:34.323Z,2.58
2022-10-09T20:31:36.488Z,5.20
2022-10-09T20:34:38.785Z,2.65
2022-10-09T20:37:40.958Z,3.50
2022-10-09T20:40:43.129Z,4.05
2022-10-09T20:43:45.530Z,3.92
2022-10-09T20:46:47.788Z,3.25
2022-10-09T20:49:50.013Z,3.65
2022-10-09T20:52:52.615Z,2.10
2022-10-09T20:56:03.303Z,2.30
2022-10-09T20:59:05.511Z,2.90
2022-10-09T21:02:07.742Z,2.53
2022-10-09T21:05:09.886Z,3.08
2022-10-09T21:08:12.081Z,3.87
2022-10-09T21:11:17.126Z,3.12
2022-10-09T21:14:19.416Z,3.33
2022-10-09T21:17:21.640Z,2.60
2022-10-09T21:20:23.804Z,6.03
2022-10-09T21:23:26.003Z,3.37
2022-10-09T21:26:29.579Z,3.37
2022-10-09T21:29:31.721Z,2.90
2022-10-09T21:32:33.890Z,2.60
2022-10-09T21:35:50.338Z,1.52
2022-10-09T21:38:52.661Z,7.78
2022-10-09T21:41:54.841Z,3.22
2022-10-09T21:44:57.006Z,2.37
2022-10-09T21:47:59.313Z,2.03
2022-10-09T21:51:01.541Z,3.03
2022-10-09T21:54:03.785Z,2.30
2022-10-09T21:57:05.954Z,4.97
2022-10-09T22:00:08.835Z,2.85
2022-10-09T22:03:10.987Z,2.42
2022-10-09T22:06:18.701Z,2.03
2022-10-09T22:09:21.550Z,1.75
2022-10-09T22:12:23.767Z,2.92
2022-10-09T22:15:25.933Z,9.45
2022-10-09T22:18:28.092Z,6.82
2022-10-09T22:21:30.474Z,2.37
2022-10-09T22:24:32.648Z,2.85
2022-10-09T22:27:34.880Z,2.25
2022-10-09T22:30:37.044Z,1.60
2022-10-09T22:33:39.907Z,2.20
2022-10-09T22:36:42.181Z,8.00
2022-10-09T22:39:44.327Z,1.92
2022-10-09T22:42:46.855Z,2.28
2022-10-09T22:45:49.026Z,1.85
2022-10-09T22:48:51.789Z,1.30
2022-10-09T22:51:54.029Z,2.40
2022-10-09T22:54:56.693Z,2.42
2022-10-09T22:57:59.183Z,1.42
2022-10-09T23:01:11.832Z,2.30
2022-10-09T23:04:16.093Z,2.90
2022-10-09T23:07:18.268Z,1.30
2022-10-09T23:10:20.597Z,4.97
2022-10-09T23:13:22.766Z,1.83
2022-10-09T23:16:26.268Z,1.98
2022-10-09T23:19:28.500Z,6.55
2022-10-09T23:22:30.703Z,1.48
2022-10-09T23:25:32.824Z,2.47
2022-10-09T23:28:35.550Z,1.80
2022-10-09T23:31:37.904Z,2.40
2022-10-09T23:34:40.146Z,3.10
2022-10-09T23:37:42.324Z,4.37
2022-10-09T23:40:54.791Z,5.22
2022-10-09T23:43:57.203Z,1.20
2022-10-09T23:46:59.376Z,1.52
2022-10-09T23:50:01.683Z,2.47
2022-10-09T23:53:03.852Z,4.82
2022-10-09T23:56:20.027Z,1.37
2022-10-09T23:59:22.208Z,1.27
